sensor_id;sensor_type;location;lat;lon;timestamp;P1;durP1;ratioP1;P2;durP2;ratioP2
69779;SDS011;57052;55.602;38.096;2023-06-26T00:00:40;26.50;;;15.38;;
69779;SDS011;57052;55.602;38.096;2023-06-26T00:03:06;28.00;;;16.33;;
69779;SDS011;57052;55.602;38.096;2023-06-26T00:05:32;28.55;;;16.17;;
69779;SDS011;57052;55.602;38.096;2023-06-26T00:07:58;30.45;;;15.80;;
69779;SDS011;57052;55.602;38.096;2023-06-26T00:10:26;27.73;;;15.48;;
69779;SDS011;57052;55.602;38.096;2023-06-26T00:12:53;30.13;;;16.52;;
69779;SDS011;57052;55.602;38.096;2023-06-26T00:15:19;28.40;;;16.60;;
69779;SDS011;57052;55.602;38.096;2023-06-26T00:17:45;26.73;;;15.43;;
69779;SDS011;57052;55.602;38.096;2023-06-26T00:20:11;23.63;;;14.93;;
69779;SDS011;57052;55.602;38.096;2023-06-26T00:22:37;26.75;;;15.85;;
69779;SDS011;57052;55.602;38.096;2023-06-26T00:25:06;26.67;;;15.82;;
69779;SDS011;57052;55.602;38.096;2023-06-26T00:27:32;27.35;;;15.40;;
69779;SDS011;57052;55.602;38.096;2023-06-26T00:29:58;25.35;;;15.20;;
69779;SDS011;57052;55.602;38.096;2023-06-26T00:32:24;26.35;;;15.25;;
69779;SDS011;57052;55.602;38.096;2023-06-26T00:34:50;25.38;;;15.10;;
69779;SDS011;57052;55.602;38.096;2023-06-26T00:37:15;26.63;;;15.02;;
69779;SDS011;57052;55.602;38.096;2023-06-26T00:39:41;23.80;;;14.15;;
69779;SDS011;57052;55.602;38.096;2023-06-26T00:42:07;23.50;;;13.80;;
69779;SDS011;57052;55.602;38.096;2023-06-26T00:44:33;24.42;;;13.18;;
69779;SDS011;57052;55.602;38.096;2023-06-26T00:46:59;25.30;;;13.80;;
69779;SDS011;57052;55.602;38.096;2023-06-26T00:49:25;21.48;;;13.65;;
69779;SDS011;57052;55.602;38.096;2023-06-26T00:51:52;22.92;;;13.55;;
69779;SDS011;57052;55.602;38.096;2023-06-26T00:54:18;22.27;;;12.70;;
69779;SDS011;57052;55.602;38.096;2023-06-26T00:56:46;23.73;;;13.73;;
69779;SDS011;57052;55.602;38.096;2023-06-26T00:59:12;22.15;;;13.35;;
69779;SDS011;57052;55.602;38.096;2023-06-26T01:01:38;22.30;;;13.48;;
69779;SDS011;57052;55.602;38.096;2023-06-26T01:04:04;23.58;;;13.23;;
69779;SDS011;57052;55.602;38.096;2023-06-26T01:06:30;22.50;;;13.50;;
69779;SDS011;57052;55.602;38.096;2023-06-26T01:09:01;22.20;;;13.23;;
69779;SDS011;57052;55.602;38.096;2023-06-26T01:11:28;22.63;;;12.90;;
69779;SDS011;57052;55.602;38.096;2023-06-26T01:13:54;23.90;;;13.23;;
69779;SDS011;57052;55.602;38.096;2023-06-26T01:16:23;26.42;;;13.60;;
69779;SDS011;57052;55.602;38.096;2023-06-26T01:18:49;23.17;;;13.40;;
69779;SDS011;57052;55.602;38.096;2023-06-26T01:21:15;24.20;;;12.93;;
69779;SDS011;57052;55.602;38.096;2023-06-26T01:26:32;23.25;;;13.00;;
69779;SDS011;57052;55.602;38.096;2023-06-26T01:29:02;21.33;;;12.15;;
69779;SDS011;57052;55.602;38.096;2023-06-26T01:31:31;24.25;;;13.45;;
69779;SDS011;57052;55.602;38.096;2023-06-26T01:33:58;25.65;;;13.20;;
69779;SDS011;57052;55.602;38.096;2023-06-26T01:36:25;21.00;;;12.60;;
69779;SDS011;57052;55.602;38.096;2023-06-26T01:38:51;24.42;;;13.45;;
69779;SDS011;57052;55.602;38.096;2023-06-26T01:41:17;22.27;;;12.63;;
69779;SDS011;57052;55.602;38.096;2023-06-26T01:46:29;22.38;;;12.65;;
69779;SDS011;57052;55.602;38.096;2023-06-26T01:49:17;21.88;;;11.57;;
69779;SDS011;57052;55.602;38.096;2023-06-26T01:52:01;19.25;;;11.63;;
69779;SDS011;57052;55.602;38.096;2023-06-26T01:54:33;21.13;;;12.35;;
69779;SDS011;57052;55.602;38.096;2023-06-26T01:57:08;20.63;;;11.65;;
69779;SDS011;57052;55.602;38.096;2023-06-26T01:59:35;18.20;;;11.35;;
69779;SDS011;57052;55.602;38.096;2023-06-26T02:02:06;20.50;;;11.40;;
69779;SDS011;57052;55.602;38.096;2023-06-26T02:04:32;19.83;;;10.90;;
69779;SDS011;57052;55.602;38.096;2023-06-26T02:06:58;16.85;;;10.38;;
69779;SDS011;57052;55.602;38.096;2023-06-26T02:09:24;17.30;;;10.18;;
69779;SDS011;57052;55.602;38.096;2023-06-26T02:11:49;18.40;;;10.65;;
69779;SDS011;57052;55.602;38.096;2023-06-26T02:14:15;21.13;;;11.23;;
69779;SDS011;57052;55.602;38.096;2023-06-26T02:16:41;19.00;;;10.95;;
69779;SDS011;57052;55.602;38.096;2023-06-26T02:19:06;20.63;;;10.75;;
69779;SDS011;57052;55.602;38.096;2023-06-26T02:21:52;17.70;;;10.88;;
69779;SDS011;57052;55.602;38.096;2023-06-26T02:24:18;20.08;;;11.30;;
69779;SDS011;57052;55.602;38.096;2023-06-26T02:26:44;21.05;;;9.98;;
69779;SDS011;57052;55.602;38.096;2023-06-26T02:29:11;18.63;;;10.35;;
69779;SDS011;57052;55.602;38.096;2023-06-26T02:31:37;15.93;;;9.98;;
69779;SDS011;57052;55.602;38.096;2023-06-26T02:34:03;20.25;;;10.80;;
69779;SDS011;57052;55.602;38.096;2023-06-26T02:36:29;21.55;;;9.93;;
69779;SDS011;57052;55.602;38.096;2023-06-26T02:38:55;17.10;;;10.90;;
69779;SDS011;57052;55.602;38.096;2023-06-26T02:41:20;18.55;;;10.52;;
69779;SDS011;57052;55.602;38.096;2023-06-26T02:43:46;18.25;;;10.40;;
69779;SDS011;57052;55.602;38.096;2023-06-26T02:46:12;17.40;;;9.80;;
69779;SDS011;57052;55.602;38.096;2023-06-26T02:48:37;20.02;;;9.90;;
69779;SDS011;57052;55.602;38.096;2023-06-26T02:51:03;19.63;;;9.82;;
69779;SDS011;57052;55.602;38.096;2023-06-26T02:53:29;17.30;;;9.57;;
69779;SDS011;57052;55.602;38.096;2023-06-26T02:55:56;17.90;;;9.85;;
69779;SDS011;57052;55.602;38.096;2023-06-26T02:58:22;18.02;;;10.00;;
69779;SDS011;57052;55.602;38.096;2023-06-26T03:00:47;17.90;;;9.93;;
69779;SDS011;57052;55.602;38.096;2023-06-26T03:03:13;18.13;;;10.55;;
69779;SDS011;57052;55.602;38.096;2023-06-26T03:05:39;17.63;;;9.45;;
69779;SDS011;57052;55.602;38.096;2023-06-26T03:08:04;18.75;;;9.80;;
69779;SDS011;57052;55.602;38.096;2023-06-26T03:10:30;16.70;;;9.88;;
69779;SDS011;57052;55.602;38.096;2023-06-26T03:12:56;17.08;;;9.85;;
69779;SDS011;57052;55.602;38.096;2023-06-26T03:15:21;14.88;;;9.25;;
69779;SDS011;57052;55.602;38.096;2023-06-26T03:17:47;18.55;;;9.52;;
69779;SDS011;57052;55.602;38.096;2023-06-26T03:20:13;15.45;;;9.35;;
69779;SDS011;57052;55.602;38.096;2023-06-26T03:22:39;19.10;;;8.75;;
69779;SDS011;57052;55.602;38.096;2023-06-26T03:25:04;21.27;;;10.38;;
69779;SDS011;57052;55.602;38.096;2023-06-26T03:27:31;33.03;;;9.50;;
69779;SDS011;57052;55.602;38.096;2023-06-26T03:29:56;14.88;;;8.73;;
69779;SDS011;57052;55.602;38.096;2023-06-26T03:32:22;14.90;;;8.02;;
69779;SDS011;57052;55.602;38.096;2023-06-26T03:34:47;13.25;;;8.55;;
69779;SDS011;57052;55.602;38.096;2023-06-26T03:37:13;14.30;;;8.32;;
69779;SDS011;57052;55.602;38.096;2023-06-26T03:39:39;14.05;;;8.13;;
69779;SDS011;57052;55.602;38.096;2023-06-26T03:42:04;15.35;;;8.77;;
69779;SDS011;57052;55.602;38.096;2023-06-26T03:44:31;14.88;;;9.10;;
69779;SDS011;57052;55.602;38.096;2023-06-26T03:46:57;13.98;;;8.00;;
69779;SDS011;57052;55.602;38.096;2023-06-26T03:49:22;15.68;;;8.68;;
69779;SDS011;57052;55.602;38.096;2023-06-26T03:51:48;13.88;;;8.10;;
69779;SDS011;57052;55.602;38.096;2023-06-26T03:54:14;14.75;;;7.53;;
69779;SDS011;57052;55.602;38.096;2023-06-26T03:56:40;13.80;;;7.85;;
69779;SDS011;57052;55.602;38.096;2023-06-26T03:59:05;12.23;;;7.60;;
69779;SDS011;57052;55.602;38.096;2023-06-26T04:01:31;14.27;;;7.65;;
69779;SDS011;57052;55.602;38.096;2023-06-26T04:03:57;14.30;;;7.88;;
69779;SDS011;57052;55.602;38.096;2023-06-26T04:06:23;12.27;;;7.55;;
69779;SDS011;57052;55.602;38.096;2023-06-26T04:08:48;14.98;;;8.18;;
69779;SDS011;57052;55.602;38.096;2023-06-26T04:11:14;15.52;;;7.65;;
69779;SDS011;57052;55.602;38.096;2023-06-26T04:13:40;12.63;;;7.38;;
69779;SDS011;57052;55.602;38.096;2023-06-26T04:16:05;12.88;;;7.80;;
69779;SDS011;57052;55.602;38.096;2023-06-26T04:18:32;13.27;;;7.90;;
69779;SDS011;57052;55.602;38.096;2023-06-26T04:21:07;10.68;;;7.35;;
69779;SDS011;57052;55.602;38.096;2023-06-26T04:23:37;11.10;;;7.43;;
69779;SDS011;57052;55.602;38.096;2023-06-26T04:26:06;12.45;;;7.05;;
69779;SDS011;57052;55.602;38.096;2023-06-26T04:28:33;11.13;;;6.60;;
69779;SDS011;57052;55.602;38.096;2023-06-26T04:30:59;12.02;;;6.70;;
69779;SDS011;57052;55.602;38.096;2023-06-26T04:33:26;10.48;;;6.72;;
69779;SDS011;57052;55.602;38.096;2023-06-26T04:35:53;12.70;;;7.97;;
69779;SDS011;57052;55.602;38.096;2023-06-26T04:38:19;13.75;;;7.60;;
69779;SDS011;57052;55.602;38.096;2023-06-26T04:40:45;12.05;;;6.63;;
69779;SDS011;57052;55.602;38.096;2023-06-26T04:43:11;11.45;;;6.72;;
69779;SDS011;57052;55.602;38.096;2023-06-26T04:45:37;10.82;;;6.70;;
69779;SDS011;57052;55.602;38.096;2023-06-26T04:48:03;13.45;;;6.55;;
69779;SDS011;57052;55.602;38.096;2023-06-26T04:50:29;14.07;;;6.75;;
69779;SDS011;57052;55.602;38.096;2023-06-26T04:52:56;12.48;;;7.07;;
69779;SDS011;57052;55.602;38.096;2023-06-26T04:55:25;10.60;;;6.82;;
69779;SDS011;57052;55.602;38.096;2023-06-26T04:57:51;12.70;;;6.50;;
69779;SDS011;57052;55.602;38.096;2023-06-26T05:00:17;11.45;;;7.10;;
69779;SDS011;57052;55.602;38.096;2023-06-26T05:02:43;14.20;;;7.03;;
69779;SDS011;57052;55.602;38.096;2023-06-26T05:05:09;11.90;;;6.28;;
69779;SDS011;57052;55.602;38.096;2023-06-26T05:07:35;11.10;;;5.97;;
69779;SDS011;57052;55.602;38.096;2023-06-26T05:10:01;10.27;;;6.05;;
69779;SDS011;57052;55.602;38.096;2023-06-26T05:12:29;11.93;;;6.00;;
69779;SDS011;57052;55.602;38.096;2023-06-26T05:14:55;9.50;;;5.80;;
69779;SDS011;57052;55.602;38.096;2023-06-26T05:17:20;9.32;;;5.68;;
69779;SDS011;57052;55.602;38.096;2023-06-26T05:19:46;8.77;;;5.35;;
69779;SDS011;57052;55.602;38.096;2023-06-26T05:22:12;10.85;;;5.72;;
69779;SDS011;57052;55.602;38.096;2023-06-26T05:24:39;10.20;;;5.80;;
69779;SDS011;57052;55.602;38.096;2023-06-26T05:27:05;8.65;;;5.22;;
69779;SDS011;57052;55.602;38.096;2023-06-26T05:29:32;11.73;;;5.18;;
69779;SDS011;57052;55.602;38.096;2023-06-26T05:31:58;8.55;;;5.57;;
69779;SDS011;57052;55.602;38.096;2023-06-26T05:34:24;10.20;;;5.65;;
69779;SDS011;57052;55.602;38.096;2023-06-26T05:36:55;7.65;;;4.93;;
69779;SDS011;57052;55.602;38.096;2023-06-26T05:39:23;7.30;;;4.60;;
69779;SDS011;57052;55.602;38.096;2023-06-26T05:41:50;7.88;;;5.00;;
69779;SDS011;57052;55.602;38.096;2023-06-26T05:44:16;8.82;;;5.05;;
69779;SDS011;57052;55.602;38.096;2023-06-26T05:46:42;8.70;;;5.20;;
69779;SDS011;57052;55.602;38.096;2023-06-26T05:49:09;11.25;;;6.00;;
69779;SDS011;57052;55.602;38.096;2023-06-26T05:51:35;7.30;;;4.50;;
69779;SDS011;57052;55.602;38.096;2023-06-26T05:54:01;7.13;;;4.80;;
69779;SDS011;57052;55.602;38.096;2023-06-26T05:56:27;7.47;;;5.28;;
69779;SDS011;57052;55.602;38.096;2023-06-26T05:58:53;7.40;;;4.40;;
69779;SDS011;57052;55.602;38.096;2023-06-26T06:01:20;6.60;;;4.43;;
69779;SDS011;57052;55.602;38.096;2023-06-26T06:03:46;7.72;;;4.97;;
69779;SDS011;57052;55.602;38.096;2023-06-26T06:06:11;9.68;;;5.90;;
69779;SDS011;57052;55.602;38.096;2023-06-26T06:08:37;9.38;;;5.30;;
69779;SDS011;57052;55.602;38.096;2023-06-26T06:11:03;8.10;;;4.90;;
69779;SDS011;57052;55.602;38.096;2023-06-26T06:13:29;7.38;;;4.78;;
69779;SDS011;57052;55.602;38.096;2023-06-26T06:15:55;6.75;;;4.72;;
69779;SDS011;57052;55.602;38.096;2023-06-26T06:18:21;9.77;;;5.32;;
69779;SDS011;57052;55.602;38.096;2023-06-26T06:20:47;7.57;;;4.70;;
69779;SDS011;57052;55.602;38.096;2023-06-26T06:23:13;8.10;;;4.82;;
69779;SDS011;57052;55.602;38.096;2023-06-26T06:25:39;8.75;;;5.45;;
69779;SDS011;57052;55.602;38.096;2023-06-26T06:28:05;9.63;;;4.93;;
69779;SDS011;57052;55.602;38.096;2023-06-26T06:30:31;9.32;;;5.10;;
69779;SDS011;57052;55.602;38.096;2023-06-26T06:32:57;7.60;;;4.80;;
69779;SDS011;57052;55.602;38.096;2023-06-26T06:35:23;9.68;;;5.30;;
69779;SDS011;57052;55.602;38.096;2023-06-26T06:37:49;8.88;;;4.70;;
69779;SDS011;57052;55.602;38.096;2023-06-26T06:40:15;6.25;;;4.35;;
69779;SDS011;57052;55.602;38.096;2023-06-26T06:42:41;10.63;;;5.78;;
69779;SDS011;57052;55.602;38.096;2023-06-26T06:45:07;7.05;;;5.03;;
69779;SDS011;57052;55.602;38.096;2023-06-26T06:47:33;5.90;;;4.18;;
69779;SDS011;57052;55.602;38.096;2023-06-26T06:50:00;10.68;;;5.25;;
69779;SDS011;57052;55.602;38.096;2023-06-26T06:52:37;10.77;;;4.82;;
69779;SDS011;57052;55.602;38.096;2023-06-26T06:55:05;9.10;;;4.80;;
69779;SDS011;57052;55.602;38.096;2023-06-26T06:57:35;6.57;;;4.47;;
69779;SDS011;57052;55.602;38.096;2023-06-26T07:00:06;7.50;;;4.90;;
69779;SDS011;57052;55.602;38.096;2023-06-26T07:05:01;6.70;;;4.45;;
69779;SDS011;57052;55.602;38.096;2023-06-26T07:07:30;6.75;;;4.53;;
69779;SDS011;57052;55.602;38.096;2023-06-26T07:09:58;6.82;;;4.60;;
69779;SDS011;57052;55.602;38.096;2023-06-26T07:12:25;7.00;;;4.50;;
69779;SDS011;57052;55.602;38.096;2023-06-26T07:14:50;7.00;;;4.53;;
69779;SDS011;57052;55.602;38.096;2023-06-26T07:17:16;6.55;;;4.13;;
69779;SDS011;57052;55.602;38.096;2023-06-26T07:19:41;7.63;;;4.20;;
69779;SDS011;57052;55.602;38.096;2023-06-26T07:22:07;7.30;;;4.47;;
69779;SDS011;57052;55.602;38.096;2023-06-26T07:24:33;6.35;;;4.60;;
69779;SDS011;57052;55.602;38.096;2023-06-26T07:26:59;7.35;;;4.93;;
69779;SDS011;57052;55.602;38.096;2023-06-26T07:29:26;7.25;;;4.30;;
69779;SDS011;57052;55.602;38.096;2023-06-26T07:31:51;8.75;;;4.70;;
69779;SDS011;57052;55.602;38.096;2023-06-26T07:34:17;8.20;;;4.97;;
69779;SDS011;57052;55.602;38.096;2023-06-26T07:36:43;6.90;;;4.60;;
69779;SDS011;57052;55.602;38.096;2023-06-26T07:39:08;7.88;;;5.30;;
69779;SDS011;57052;55.602;38.096;2023-06-26T07:41:34;6.25;;;4.60;;
69779;SDS011;57052;55.602;38.096;2023-06-26T07:44:00;6.40;;;4.45;;
69779;SDS011;57052;55.602;38.096;2023-06-26T07:46:25;7.35;;;4.82;;
69779;SDS011;57052;55.602;38.096;2023-06-26T07:48:51;6.43;;;4.45;;
69779;SDS011;57052;55.602;38.096;2023-06-26T07:51:17;7.30;;;4.78;;
69779;SDS011;57052;55.602;38.096;2023-06-26T07:53:42;7.00;;;4.78;;
69779;SDS011;57052;55.602;38.096;2023-06-26T07:56:08;7.18;;;4.65;;
69779;SDS011;57052;55.602;38.096;2023-06-26T07:58:34;7.50;;;4.78;;
69779;SDS011;57052;55.602;38.096;2023-06-26T08:00:59;7.20;;;4.10;;
69779;SDS011;57052;55.602;38.096;2023-06-26T08:03:25;8.02;;;4.90;;
69779;SDS011;57052;55.602;38.096;2023-06-26T08:05:51;6.10;;;4.00;;
69779;SDS011;57052;55.602;38.096;2023-06-26T08:08:17;11.45;;;4.15;;
69779;SDS011;57052;55.602;38.096;2023-06-26T08:10:42;6.28;;;4.30;;
69779;SDS011;57052;55.602;38.096;2023-06-26T08:13:08;7.03;;;4.40;;
69779;SDS011;57052;55.602;38.096;2023-06-26T08:15:35;10.02;;;4.68;;
69779;SDS011;57052;55.602;38.096;2023-06-26T08:18:00;6.97;;;4.35;;
69779;SDS011;57052;55.602;38.096;2023-06-26T08:20:26;6.50;;;3.97;;
69779;SDS011;57052;55.602;38.096;2023-06-26T08:22:53;7.57;;;4.10;;
69779;SDS011;57052;55.602;38.096;2023-06-26T08:25:19;7.95;;;4.28;;
69779;SDS011;57052;55.602;38.096;2023-06-26T08:27:45;7.00;;;4.10;;
69779;SDS011;57052;55.602;38.096;2023-06-26T08:30:11;6.22;;;4.40;;
69779;SDS011;57052;55.602;38.096;2023-06-26T08:32:38;5.78;;;4.18;;
69779;SDS011;57052;55.602;38.096;2023-06-26T08:35:05;8.48;;;4.53;;
69779;SDS011;57052;55.602;38.096;2023-06-26T08:37:31;5.82;;;3.92;;
69779;SDS011;57052;55.602;38.096;2023-06-26T08:39:59;6.03;;;4.00;;
69779;SDS011;57052;55.602;38.096;2023-06-26T08:42:25;6.78;;;3.95;;
69779;SDS011;57052;55.602;38.096;2023-06-26T08:44:50;7.18;;;4.25;;
69779;SDS011;57052;55.602;38.096;2023-06-26T08:47:17;6.45;;;4.40;;
69779;SDS011;57052;55.602;38.096;2023-06-26T08:49:50;6.43;;;4.20;;
69779;SDS011;57052;55.602;38.096;2023-06-26T08:52:24;6.97;;;4.13;;
69779;SDS011;57052;55.602;38.096;2023-06-26T08:54:57;5.55;;;4.10;;
69779;SDS011;57052;55.602;38.096;2023-06-26T08:57:25;7.30;;;4.35;;
69779;SDS011;57052;55.602;38.096;2023-06-26T08:59:51;7.78;;;4.55;;
69779;SDS011;57052;55.602;38.096;2023-06-26T09:02:18;7.45;;;4.35;;
69779;SDS011;57052;55.602;38.096;2023-06-26T09:04:47;5.57;;;4.13;;
69779;SDS011;57052;55.602;38.096;2023-06-26T09:07:14;7.95;;;4.30;;
69779;SDS011;57052;55.602;38.096;2023-06-26T09:09:40;5.72;;;3.90;;
69779;SDS011;57052;55.602;38.096;2023-06-26T09:12:06;6.95;;;4.15;;
69779;SDS011;57052;55.602;38.096;2023-06-26T09:14:33;7.05;;;4.32;;
69779;SDS011;57052;55.602;38.096;2023-06-26T09:16:59;6.50;;;3.97;;
69779;SDS011;57052;55.602;38.096;2023-06-26T09:19:25;6.95;;;4.13;;
69779;SDS011;57052;55.602;38.096;2023-06-26T09:21:51;6.75;;;4.00;;
69779;SDS011;57052;55.602;38.096;2023-06-26T09:24:17;7.97;;;4.28;;
69779;SDS011;57052;55.602;38.096;2023-06-26T09:26:43;5.85;;;4.10;;
69779;SDS011;57052;55.602;38.096;2023-06-26T09:29:09;6.85;;;4.10;;
69779;SDS011;57052;55.602;38.096;2023-06-26T09:31:38;7.40;;;4.32;;
69779;SDS011;57052;55.602;38.096;2023-06-26T09:34:04;7.38;;;4.13;;
69779;SDS011;57052;55.602;38.096;2023-06-26T09:36:31;7.60;;;4.00;;
69779;SDS011;57052;55.602;38.096;2023-06-26T09:39:01;6.38;;;3.92;;
69779;SDS011;57052;55.602;38.096;2023-06-26T09:41:33;5.95;;;4.18;;
69779;SDS011;57052;55.602;38.096;2023-06-26T09:44:01;7.43;;;4.55;;
69779;SDS011;57052;55.602;38.096;2023-06-26T09:46:28;7.50;;;4.35;;
69779;SDS011;57052;55.602;38.096;2023-06-26T09:48:59;7.72;;;4.38;;
69779;SDS011;57052;55.602;38.096;2023-06-26T09:51:32;6.07;;;4.38;;
69779;SDS011;57052;55.602;38.096;2023-06-26T09:54:02;6.97;;;4.28;;
69779;SDS011;57052;55.602;38.096;2023-06-26T09:56:29;7.15;;;4.35;;
69779;SDS011;57052;55.602;38.096;2023-06-26T09:58:55;5.90;;;4.30;;
69779;SDS011;57052;55.602;38.096;2023-06-26T10:01:25;6.50;;;4.00;;
69779;SDS011;57052;55.602;38.096;2023-06-26T10:03:51;6.95;;;4.47;;
69779;SDS011;57052;55.602;38.096;2023-06-26T10:06:33;7.05;;;4.25;;
69779;SDS011;57052;55.602;38.096;2023-06-26T10:09:00;6.35;;;4.10;;
69779;SDS011;57052;55.602;38.096;2023-06-26T10:11:30;7.60;;;4.25;;
69779;SDS011;57052;55.602;38.096;2023-06-26T10:14:02;6.88;;;4.10;;
69779;SDS011;57052;55.602;38.096;2023-06-26T10:16:29;6.18;;;4.20;;
69779;SDS011;57052;55.602;38.096;2023-06-26T10:19:01;8.70;;;3.92;;
69779;SDS011;57052;55.602;38.096;2023-06-26T10:21:30;5.57;;;3.97;;
69779;SDS011;57052;55.602;38.096;2023-06-26T10:23:57;7.55;;;4.57;;
69779;SDS011;57052;55.602;38.096;2023-06-26T10:26:24;5.63;;;3.92;;
69779;SDS011;57052;55.602;38.096;2023-06-26T10:28:52;6.05;;;4.13;;
69779;SDS011;57052;55.602;38.096;2023-06-26T10:31:20;5.35;;;4.00;;
69779;SDS011;57052;55.602;38.096;2023-06-26T10:33:48;6.90;;;4.47;;
69779;SDS011;57052;55.602;38.096;2023-06-26T10:36:18;6.60;;;4.22;;
69779;SDS011;57052;55.602;38.096;2023-06-26T10:38:49;7.00;;;4.50;;
69779;SDS011;57052;55.602;38.096;2023-06-26T10:41:19;5.50;;;4.13;;
69779;SDS011;57052;55.602;38.096;2023-06-26T10:43:48;5.78;;;4.18;;
69779;SDS011;57052;55.602;38.096;2023-06-26T10:46:15;7.97;;;4.25;;
69779;SDS011;57052;55.602;38.096;2023-06-26T10:48:59;6.28;;;4.20;;
69779;SDS011;57052;55.602;38.096;2023-06-26T10:51:26;6.13;;;4.20;;
69779;SDS011;57052;55.602;38.096;2023-06-26T10:54:00;7.13;;;3.83;;
69779;SDS011;57052;55.602;38.096;2023-06-26T10:59:25;5.30;;;3.78;;
69779;SDS011;57052;55.602;38.096;2023-06-26T11:02:01;5.68;;;3.92;;
69779;SDS011;57052;55.602;38.096;2023-06-26T11:04:50;5.97;;;3.90;;
69779;SDS011;57052;55.602;38.096;2023-06-26T11:12:35;5.25;;;3.60;;
69779;SDS011;57052;55.602;38.096;2023-06-26T11:15:02;5.90;;;3.72;;
69779;SDS011;57052;55.602;38.096;2023-06-26T11:17:29;6.57;;;4.13;;
69779;SDS011;57052;55.602;38.096;2023-06-26T11:19:56;5.28;;;3.50;;
69779;SDS011;57052;55.602;38.096;2023-06-26T11:22:21;5.85;;;3.85;;
69779;SDS011;57052;55.602;38.096;2023-06-26T11:24:51;6.53;;;4.10;;
69779;SDS011;57052;55.602;38.096;2023-06-26T11:27:18;5.43;;;3.63;;
69779;SDS011;57052;55.602;38.096;2023-06-26T11:29:48;7.07;;;4.03;;
69779;SDS011;57052;55.602;38.096;2023-06-26T11:32:14;5.55;;;3.78;;
69779;SDS011;57052;55.602;38.096;2023-06-26T11:34:40;7.00;;;4.03;;
69779;SDS011;57052;55.602;38.096;2023-06-26T11:37:08;5.93;;;3.70;;
69779;SDS011;57052;55.602;38.096;2023-06-26T11:39:34;6.05;;;4.00;;
69779;SDS011;57052;55.602;38.096;2023-06-26T11:42:00;6.25;;;4.20;;
69779;SDS011;57052;55.602;38.096;2023-06-26T11:44:30;6.05;;;4.18;;
69779;SDS011;57052;55.602;38.096;2023-06-26T11:46:57;5.10;;;3.80;;
69779;SDS011;57052;55.602;38.096;2023-06-26T11:49:23;5.20;;;3.70;;
69779;SDS011;57052;55.602;38.096;2023-06-26T11:51:51;6.00;;;3.90;;
69779;SDS011;57052;55.602;38.096;2023-06-26T11:54:24;6.03;;;4.10;;
69779;SDS011;57052;55.602;38.096;2023-06-26T11:56:54;5.28;;;3.90;;
69779;SDS011;57052;55.602;38.096;2023-06-26T11:59:21;5.55;;;3.90;;
69779;SDS011;57052;55.602;38.096;2023-06-26T12:01:49;5.13;;;3.95;;
69779;SDS011;57052;55.602;38.096;2023-06-26T12:04:16;5.85;;;3.95;;
69779;SDS011;57052;55.602;38.096;2023-06-26T12:06:43;6.20;;;4.07;;
69779;SDS011;57052;55.602;38.096;2023-06-26T12:09:13;5.75;;;3.85;;
69779;SDS011;57052;55.602;38.096;2023-06-26T12:11:42;5.00;;;3.67;;
69779;SDS011;57052;55.602;38.096;2023-06-26T12:14:10;6.80;;;4.20;;
69779;SDS011;57052;55.602;38.096;2023-06-26T12:16:37;7.20;;;4.10;;
69779;SDS011;57052;55.602;38.096;2023-06-26T12:19:05;5.47;;;3.80;;
69779;SDS011;57052;55.602;38.096;2023-06-26T12:24:07;6.45;;;4.25;;
69779;SDS011;57052;55.602;38.096;2023-06-26T12:26:35;4.97;;;4.25;;
69779;SDS011;57052;55.602;38.096;2023-06-26T12:29:08;5.03;;;3.92;;
69779;SDS011;57052;55.602;38.096;2023-06-26T12:31:35;4.85;;;3.83;;
69779;SDS011;57052;55.602;38.096;2023-06-26T12:34:01;5.78;;;4.30;;
69779;SDS011;57052;55.602;38.096;2023-06-26T12:36:27;7.22;;;3.80;;
69779;SDS011;57052;55.602;38.096;2023-06-26T12:38:53;4.90;;;3.50;;
69779;SDS011;57052;55.602;38.096;2023-06-26T12:41:20;6.03;;;3.95;;
69779;SDS011;57052;55.602;38.096;2023-06-26T12:43:49;7.90;;;3.88;;
69779;SDS011;57052;55.602;38.096;2023-06-26T12:46:21;4.57;;;3.58;;
69779;SDS011;57052;55.602;38.096;2023-06-26T12:48:58;6.03;;;3.47;;
69779;SDS011;57052;55.602;38.096;2023-06-26T12:51:25;5.32;;;3.90;;
69779;SDS011;57052;55.602;38.096;2023-06-26T12:53:52;5.40;;;3.95;;
69779;SDS011;57052;55.602;38.096;2023-06-26T12:56:18;5.53;;;4.00;;
69779;SDS011;57052;55.602;38.096;2023-06-26T12:58:45;5.50;;;3.80;;
69779;SDS011;57052;55.602;38.096;2023-06-26T13:01:11;9.02;;;3.65;;
69779;SDS011;57052;55.602;38.096;2023-06-26T13:03:39;5.28;;;3.58;;
69779;SDS011;57052;55.602;38.096;2023-06-26T13:06:05;6.90;;;3.78;;
69779;SDS011;57052;55.602;38.096;2023-06-26T13:08:31;5.57;;;4.28;;
69779;SDS011;57052;55.602;38.096;2023-06-26T13:10:56;7.20;;;4.60;;
69779;SDS011;57052;55.602;38.096;2023-06-26T13:13:22;5.60;;;3.95;;
69779;SDS011;57052;55.602;38.096;2023-06-26T13:15:47;5.45;;;4.22;;
69779;SDS011;57052;55.602;38.096;2023-06-26T13:18:13;5.15;;;3.83;;
69779;SDS011;57052;55.602;38.096;2023-06-26T13:20:39;6.95;;;3.97;;
69779;SDS011;57052;55.602;38.096;2023-06-26T13:23:05;5.57;;;3.70;;
69779;SDS011;57052;55.602;38.096;2023-06-26T13:25:30;5.50;;;3.80;;
69779;SDS011;57052;55.602;38.096;2023-06-26T13:27:56;6.20;;;4.07;;
69779;SDS011;57052;55.602;38.096;2023-06-26T13:30:22;5.95;;;3.72;;
69779;SDS011;57052;55.602;38.096;2023-06-26T13:32:47;5.63;;;3.70;;
69779;SDS011;57052;55.602;38.096;2023-06-26T13:35:13;4.80;;;3.90;;
69779;SDS011;57052;55.602;38.096;2023-06-26T13:37:40;6.07;;;4.00;;
69779;SDS011;57052;55.602;38.096;2023-06-26T13:40:08;6.15;;;4.00;;
69779;SDS011;57052;55.602;38.096;2023-06-26T13:42:34;5.82;;;3.83;;
69779;SDS011;57052;55.602;38.096;2023-06-26T13:45:02;6.10;;;3.90;;
69779;SDS011;57052;55.602;38.096;2023-06-26T13:47:32;6.03;;;4.10;;
69779;SDS011;57052;55.602;38.096;2023-06-26T13:49:59;5.38;;;4.18;;
69779;SDS011;57052;55.602;38.096;2023-06-26T13:52:25;5.57;;;4.05;;
69779;SDS011;57052;55.602;38.096;2023-06-26T13:54:51;5.40;;;3.90;;
69779;SDS011;57052;55.602;38.096;2023-06-26T13:57:17;6.15;;;4.50;;
69779;SDS011;57052;55.602;38.096;2023-06-26T13:59:44;7.32;;;4.20;;
69779;SDS011;57052;55.602;38.096;2023-06-26T14:02:10;5.32;;;3.97;;
69779;SDS011;57052;55.602;38.096;2023-06-26T14:04:35;6.57;;;4.20;;
69779;SDS011;57052;55.602;38.096;2023-06-26T14:07:02;8.50;;;4.15;;
69779;SDS011;57052;55.602;38.096;2023-06-26T14:09:28;5.68;;;3.72;;
69779;SDS011;57052;55.602;38.096;2023-06-26T14:11:54;7.97;;;4.50;;
69779;SDS011;57052;55.602;38.096;2023-06-26T14:14:20;7.18;;;4.00;;
69779;SDS011;57052;55.602;38.096;2023-06-26T14:16:46;6.75;;;4.05;;
69779;SDS011;57052;55.602;38.096;2023-06-26T14:19:14;5.65;;;3.88;;
69779;SDS011;57052;55.602;38.096;2023-06-26T14:21:43;5.70;;;3.88;;
69779;SDS011;57052;55.602;38.096;2023-06-26T14:24:09;5.13;;;3.47;;
69779;SDS011;57052;55.602;38.096;2023-06-26T14:26:35;5.25;;;3.67;;
69779;SDS011;57052;55.602;38.096;2023-06-26T14:29:02;6.45;;;3.88;;
69779;SDS011;57052;55.602;38.096;2023-06-26T14:31:27;5.45;;;3.92;;
69779;SDS011;57052;55.602;38.096;2023-06-26T14:33:53;6.38;;;4.35;;
69779;SDS011;57052;55.602;38.096;2023-06-26T14:36:19;6.82;;;4.70;;
69779;SDS011;57052;55.602;38.096;2023-06-26T14:38:45;7.78;;;4.05;;
69779;SDS011;57052;55.602;38.096;2023-06-26T14:41:11;5.93;;;3.90;;
69779;SDS011;57052;55.602;38.096;2023-06-26T14:43:38;7.40;;;3.90;;